Terminal Aerodrome Forecast
Issued by NWS

Home | Current Version | Previous Version | Text Only | Print | Product List | Glossary On
Versions: 1 2 3 4 5 6 7 8 9 10 11 12 13 14 15 16 17 18 19 20 21 22 23 24 25 26 27 28 29 30 31 32 33 34
000
FTUS42 KJAX 191120
TAFVQQ
TAF
KVQQ 191120Z 1912/2012 17013G22KT P6SM BKN010 BKN200
     FM191400 19025G35KT P6SM SCT010 BKN025 BKN150
     FM191730 21030G45KT 1SM +TSRA OVC015CB
     FM192000 24018G28KT 4SM -SHRA OVC025
     FM192300 24015G25KT P6SM SCT025 BKN050
     FM200400 24010KT P6SM SCT050 SCT250=

USA.gov is the U.S. government's official web portal to all federal, state and local government web resources and services.